Time;durP1;ratioP1;P1;durP2;ratioP2;P2;SDS_P1;SDS_P2;PMS_P1;PMS_P2;Temp;Humidity;BMP_temperature;BMP_pressure;BME280_temperature;BME280_humidity;BME280_pressure;Samples;Min_cycle;Max_cycle;Signal;HPM_P1;HPM_P2
2023/08/09 00:00:32;;;;;;;5.53;3.70;;;16.70;99.90;;;;;;5116413;28;20197;-48
2023/08/09 00:03:01;;;;;;;10.80;4.10;;;16.60;99.90;;;;;;5116076;28;20204;-51
2023/08/09 00:05:27;;;;;;;5.47;4.28;;;16.70;99.90;;;;;;5116410;28;20194;-48
2023/08/09 00:07:52;;;;;;;8.25;4.38;;;16.70;99.90;;;;;;5116330;28;20562;-51
2023/08/09 00:10:18;;;;;;;8.32;5.35;;;16.70;99.90;;;;;;5115970;28;20173;-49
2023/08/09 00:12:44;;;;;;;5.50;4.22;;;16.70;99.90;;;;;;5116254;28;20173;-49
2023/08/09 00:15:10;;;;;;;7.78;4.57;;;16.70;99.90;;;;;;5116143;28;20165;-48
2023/08/09 00:17:36;;;;;;;6.30;4.20;;;16.70;99.90;;;;;;5115880;28;20165;-51
2023/08/09 00:20:02;;;;;;;6.65;5.03;;;16.70;99.90;;;;;;5116026;28;20304;-50
2023/08/09 00:22:28;;;;;;;5.32;4.78;;;16.70;99.90;;;;;;5116038;28;20234;-52
2023/08/09 00:24:54;;;;;;;6.40;5.35;;;16.70;99.90;;;;;;5116031;28;20169;-51
2023/08/09 00:27:19;;;;;;;6.07;5.10;;;16.80;99.90;;;;;;5116213;28;20166;-53
2023/08/09 00:29:45;;;;;;;7.80;5.45;;;16.80;99.90;;;;;;5115901;28;20227;-52
2023/08/09 00:32:10;;;;;;;10.15;5.60;;;16.70;99.90;;;;;;5115549;28;20166;-51
2023/08/09 00:34:36;;;;;;;9.13;5.85;;;16.70;99.90;;;;;;5115822;28;20509;-48
2023/08/09 00:37:02;;;;;;;7.15;5.70;;;16.70;99.90;;;;;;5115672;28;20173;-48
2023/08/09 00:39:28;;;;;;;6.22;5.63;;;16.70;99.90;;;;;;5115695;28;20580;-49
2023/08/09 00:41:53;;;;;;;9.77;5.88;;;16.70;99.90;;;;;;5115592;28;20169;-52
2023/08/09 00:44:19;;;;;;;8.38;5.90;;;16.80;99.90;;;;;;5115598;28;20629;-53
2023/08/09 00:46:45;;;;;;;7.03;5.85;;;16.80;99.90;;;;;;5115587;28;20595;-48
2023/08/09 00:49:11;;;;;;;11.38;7.15;;;16.80;99.90;;;;;;5115531;28;20175;-50
2023/08/09 00:51:37;;;;;;;7.97;7.18;;;16.80;99.90;;;;;;5115225;28;20166;-48
2023/08/09 00:54:03;;;;;;;9.05;6.60;;;16.50;99.90;;;;;;5115433;28;20169;-49
2023/08/09 00:56:29;;;;;;;7.05;6.00;;;16.20;99.90;;;;;;5115379;28;20176;-48
2023/08/09 00:58:55;;;;;;;5.03;3.13;;;16.00;99.90;;;;;;5115267;28;20173;-51
2023/08/09 01:01:20;;;;;;;1.95;1.85;;;16.00;99.90;;;;;;5115302;28;20173;-48
2023/08/09 01:03:46;;;;;;;3.17;2.05;;;15.90;99.90;;;;;;5114953;28;20169;-52
2023/08/09 01:06:16;;;;;;;1.98;1.88;;;15.80;99.90;;;;;;5115183;28;20176;-52
2023/08/09 01:09:02;;;;;;;2.67;1.40;;;15.80;99.90;;;;;;5115427;28;20170;-50
2023/08/09 01:11:48;;;;;;;1.73;1.55;;;15.60;99.90;;;;;;5115119;28;20244;-51
2023/08/09 01:14:15;;;;;;;3.13;1.50;;;15.60;99.90;;;;;;5114326;28;20260;-51
2023/08/09 01:16:44;;;;;;;3.28;1.67;;;15.40;99.90;;;;;;5114695;28;20153;-51
2023/08/09 01:19:28;;;;;;;4.57;1.83;;;15.30;99.90;;;;;;5114750;28;20227;-51
2023/08/09 01:21:56;;;;;;;5.28;1.80;;;15.30;99.90;;;;;;5114866;28;20598;-48
2023/08/09 01:24:22;;;;;;;2.42;1.80;;;15.40;99.90;;;;;;5114854;28;20253;-50
2023/08/09 01:26:49;;;;;;;4.30;2.08;;;15.40;99.90;;;;;;5114882;28;20560;-51
2023/08/09 01:29:15;;;;;;;4.05;2.00;;;15.50;99.90;;;;;;5114766;28;20230;-50
2023/08/09 01:31:41;;;;;;;2.55;2.22;;;15.50;99.90;;;;;;5114988;28;20209;-52
2023/08/09 01:34:06;;;;;;;2.92;2.22;;;15.50;99.90;;;;;;5114640;28;20257;-49
2023/08/09 01:36:36;;;;;;;2.30;2.10;;;15.50;99.90;;;;;;5114632;28;20169;-50
2023/08/09 01:39:10;;;;;;;3.50;2.00;;;15.50;99.90;;;;;;5114490;28;20193;-49
2023/08/09 01:41:37;;;;;;;4.32;2.50;;;15.60;99.90;;;;;;5114575;28;20243;-52
2023/08/09 01:44:04;;;;;;;2.60;2.10;;;15.70;99.90;;;;;;5114271;28;20169;-52
2023/08/09 01:46:30;;;;;;;2.42;2.03;;;15.70;99.90;;;;;;5114500;28;20172;-47
2023/08/09 01:49:09;;;;;;;2.50;2.30;;;15.70;99.90;;;;;;5114403;28;20248;-53
2023/08/09 01:51:35;;;;;;;2.08;1.88;;;15.80;99.90;;;;;;5114403;28;20165;-47
2023/08/09 01:54:01;;;;;;;2.45;2.08;;;15.80;99.90;;;;;;5114312;28;20176;-52
2023/08/09 01:56:27;;;;;;;2.90;2.70;;;15.80;99.90;;;;;;5114357;28;20193;-47
2023/08/09 01:58:52;;;;;;;4.05;2.92;;;15.80;99.90;;;;;;5114245;28;20181;-52
2023/08/09 02:01:18;;;;;;;3.55;3.30;;;15.80;99.90;;;;;;5114299;28;20226;-49
2023/08/09 02:03:43;;;;;;;3.45;3.15;;;15.80;99.90;;;;;;5114253;28;20173;-53
2023/08/09 02:06:09;;;;;;;3.97;3.58;;;15.90;99.90;;;;;;5114189;28;20252;-50
2023/08/09 02:08:35;;;;;;;3.58;3.25;;;15.90;99.90;;;;;;5114204;28;20252;-49
2023/08/09 02:11:00;;;;;;;3.83;3.50;;;15.80;99.90;;;;;;5113810;28;20212;-49
2023/08/09 02:13:26;;;;;;;3.72;3.42;;;15.80;99.90;;;;;;5114139;28;20173;-51
2023/08/09 02:15:51;;;;;;;4.63;3.53;;;15.80;99.90;;;;;;5114080;28;20176;-50
2023/08/09 02:18:17;;;;;;;3.45;3.15;;;15.90;99.90;;;;;;5113733;28;20188;-51
2023/08/09 02:20:43;;;;;;;4.28;3.90;;;15.90;99.90;;;;;;5114062;28;20260;-49
2023/08/09 02:23:09;;;;;;;3.85;3.50;;;15.90;99.90;;;;;;5114284;28;20217;-48
2023/08/09 02:25:34;;;;;;;3.90;3.50;;;15.90;99.90;;;;;;5117088;28;20180;-51
2023/08/09 02:28:00;;;;;;;4.40;3.67;;;15.90;99.90;;;;;;5118245;28;20169;-47
2023/08/09 02:30:25;;;;;;;4.20;3.90;;;15.90;99.90;;;;;;5118232;28;20261;-51
2023/08/09 02:32:51;;;;;;;4.38;3.67;;;15.90;99.90;;;;;;5118112;28;20637;-50
2023/08/09 02:35:17;;;;;;;4.25;3.85;;;15.80;99.90;;;;;;5118223;28;20173;-50
2023/08/09 02:37:43;;;;;;;5.78;4.30;;;15.70;99.90;;;;;;5118124;28;20172;-50
2023/08/09 02:40:10;;;;;;;4.65;4.10;;;15.70;99.90;;;;;;5117984;28;20291;-50
2023/08/09 02:42:37;;;;;;;5.28;4.80;;;15.70;99.90;;;;;;5118013;28;20503;-50
2023/08/09 02:45:03;;;;;;;5.85;4.65;;;15.70;99.90;;;;;;5117949;28;20208;-51
2023/08/09 02:47:29;;;;;;;5.78;5.18;;;15.70;99.90;;;;;;5118079;28;20547;-50
2023/08/09 02:49:55;;;;;;;5.85;5.22;;;15.80;99.90;;;;;;5118163;28;20165;-51
2023/08/09 02:52:20;;;;;;;5.95;5.35;;;15.80;99.90;;;;;;5117794;28;20648;-51
2023/08/09 02:54:47;;;;;;;6.60;6.03;;;15.70;99.90;;;;;;5117485;28;20165;-50
2023/08/09 02:57:13;;;;;;;6.20;5.60;;;15.80;99.90;;;;;;5117624;28;20177;-49
2023/08/09 02:59:39;;;;;;;7.82;6.03;;;15.80;99.90;;;;;;5117290;28;20212;-47
2023/08/09 03:02:05;;;;;;;6.90;6.40;;;15.80;99.90;;;;;;5117563;28;20197;-49
2023/08/09 03:04:31;;;;;;;6.90;6.20;;;15.90;99.90;;;;;;5117579;28;20506;-50
2023/08/09 03:06:57;;;;;;;7.07;6.25;;;15.90;99.90;;;;;;5117560;28;20245;-47
2023/08/09 03:09:23;;;;;;;7.10;6.40;;;15.90;99.90;;;;;;5117527;28;20618;-52
2023/08/09 03:11:49;;;;;;;7.35;6.65;;;15.90;99.90;;;;;;5117435;28;20166;-48
2023/08/09 03:14:15;;;;;;;8.60;6.93;;;15.90;99.90;;;;;;5117100;28;20606;-50
2023/08/09 03:16:41;;;;;;;7.38;6.68;;;15.90;99.90;;;;;;5117331;28;20260;-47
2023/08/09 03:19:08;;;;;;;8.02;6.35;;;15.80;99.90;;;;;;5116975;28;20542;-48
2023/08/09 03:21:34;;;;;;;7.63;6.93;;;15.80;99.90;;;;;;5117289;28;20166;-48
2023/08/09 03:24:00;;;;;;;6.82;6.22;;;15.70;99.90;;;;;;5116933;28;20652;-51
2023/08/09 03:26:26;;;;;;;8.13;7.45;;;15.60;99.90;;;;;;5117151;28;20169;-52
2023/08/09 03:28:52;;;;;;;7.47;6.80;;;15.50;99.90;;;;;;5117078;28;20201;-52
2023/08/09 03:31:18;;;;;;;9.13;8.23;;;15.60;99.90;;;;;;5117105;28;20191;-51
2023/08/09 03:33:43;;;;;;;8.20;7.40;;;15.70;99.90;;;;;;5117013;28;20202;-51
2023/08/09 03:36:09;;;;;;;7.68;6.97;;;15.60;99.90;;;;;;5116237;28;20193;-52
2023/08/09 03:38:35;;;;;;;8.52;7.55;;;15.60;99.90;;;;;;5116924;28;20174;-51
2023/08/09 03:41:01;;;;;;;9.38;8.48;;;15.50;99.90;;;;;;5115455;28;20197;-51
2023/08/09 03:43:26;;;;;;;8.50;7.72;;;15.40;99.90;;;;;;5116867;28;20248;-51
2023/08/09 03:45:52;;;;;;;10.63;9.52;;;15.40;99.90;;;;;;5116834;28;20479;-49
2023/08/09 03:48:18;;;;;;;9.80;8.90;;;15.40;99.90;;;;;;5116802;28;20173;-50
2023/08/09 03:50:44;;;;;;;10.43;9.52;;;15.30;99.90;;;;;;5116742;28;20319;-48
2023/08/09 03:53:10;;;;;;;9.85;8.95;;;15.30;99.90;;;;;;5116630;28;20584;-51
2023/08/09 03:55:35;;;;;;;10.32;9.32;;;15.40;99.90;;;;;;5116615;28;20165;-51
2023/08/09 03:58:01;;;;;;;10.65;9.75;;;15.40;99.90;;;;;;5116272;28;20165;-50
2023/08/09 04:00:27;;;;;;;10.48;9.45;;;15.40;99.90;;;;;;5116362;28;20193;-49
2023/08/09 04:02:53;;;;;;;11.15;10.15;;;15.40;99.90;;;;;;5116393;28;20174;-52
2023/08/09 04:05:19;;;;;;;12.77;10.80;;;15.30;99.90;;;;;;5116353;28;20169;-48
2023/08/09 04:07:46;;;;;;;10.65;9.75;;;15.30;99.90;;;;;;5116355;28;20174;-52
2023/08/09 04:10:12;;;;;;;11.10;10.10;;;15.20;99.90;;;;;;5115996;28;20530;-49
2023/08/09 04:12:38;;;;;;;10.68;9.60;;;15.10;99.90;;;;;;5116299;28;20165;-52
2023/08/09 04:15:04;;;;;;;11.60;10.50;;;15.10;99.90;;;;;;5116208;28;20230;-53
2023/08/09 04:17:31;;;;;;;11.85;10.70;;;15.20;99.90;;;;;;5116168;28;20177;-51
2023/08/09 04:19:57;;;;;;;12.57;10.90;;;15.20;99.90;;;;;;5115370;28;20596;-49
2023/08/09 04:22:24;;;;;;;11.50;9.95;;;15.10;99.90;;;;;;5116040;28;20549;-47
2023/08/09 04:24:50;;;;;;;11.05;10.02;;;15.10;99.90;;;;;;5115602;28;20542;-48
2023/08/09 04:27:16;;;;;;;11.10;10.00;;;15.10;99.90;;;;;;5114486;28;20642;-48
2023/08/09 04:29:42;;;;;;;11.45;10.43;;;15.00;99.90;;;;;;5113760;28;20181;-53
2023/08/09 04:32:07;;;;;;;12.43;11.32;;;15.00;99.90;;;;;;5113222;28;20169;-52
2023/08/09 04:34:33;;;;;;;10.90;9.90;;;15.00;99.90;;;;;;5113927;28;20173;-53
2023/08/09 04:36:59;;;;;;;14.73;10.23;;;15.00;99.90;;;;;;5113573;28;20332;-50
2023/08/09 04:39:24;;;;;;;9.77;8.95;;;15.00;99.90;;;;;;5112175;28;20205;-48
2023/08/09 04:41:50;;;;;;;9.75;8.85;;;14.90;99.90;;;;;;5113810;28;20574;-52
2023/08/09 04:44:17;;;;;;;8.93;8.13;;;14.90;99.90;;;;;;5114111;28;20614;-52
2023/08/09 04:46:42;;;;;;;8.73;7.75;;;14.90;99.90;;;;;;5114997;28;20174;-50
2023/08/09 04:49:08;;;;;;;8.27;5.35;;;15.00;99.90;;;;;;5113783;28;20247;-52
2023/08/09 04:51:33;;;;;;;10.98;4.45;;;14.90;99.90;;;;;;5115454;28;20206;-49
2023/08/09 04:53:59;;;;;;;3.80;3.60;;;14.70;99.90;;;;;;5115042;28;20626;-52
2023/08/09 04:56:25;;;;;;;5.45;4.60;;;14.70;99.90;;;;;;5115354;28;20177;-52
2023/08/09 04:58:50;;;;;;;6.13;5.28;;;14.60;99.90;;;;;;5115190;28;20173;-48
2023/08/09 05:01:16;;;;;;;4.90;4.50;;;14.70;99.90;;;;;;5115253;28;20616;-50
2023/08/09 05:03:42;;;;;;;4.75;4.35;;;14.70;99.90;;;;;;5115174;28;20219;-49
2023/08/09 05:06:08;;;;;;;4.72;4.32;;;14.60;99.90;;;;;;5115139;28;20216;-51
2023/08/09 05:08:34;;;;;;;4.55;4.15;;;14.60;99.90;;;;;;5115018;28;20169;-48
2023/08/09 05:11:00;;;;;;;6.30;5.03;;;14.60;99.90;;;;;;5115299;28;20180;-49
2023/08/09 05:13:25;;;;;;;6.28;4.65;;;14.60;99.90;;;;;;5115023;28;20173;-49
2023/08/09 05:15:51;;;;;;;5.60;5.03;;;14.60;99.90;;;;;;5114250;28;20212;-53
2023/08/09 05:18:17;;;;;;;4.68;4.20;;;14.60;99.90;;;;;;5115114;28;20177;-48
2023/08/09 05:20:43;;;;;;;4.45;4.15;;;14.50;99.90;;;;;;5114905;28;20240;-49
2023/08/09 05:23:08;;;;;;;6.13;5.22;;;14.40;99.90;;;;;;5114574;28;20576;-54
2023/08/09 05:25:34;;;;;;;5.63;5.10;;;14.40;99.90;;;;;;5114152;28;20173;-52
2023/08/09 05:28:00;;;;;;;5.47;5.00;;;14.50;99.90;;;;;;5114604;28;20611;-51
2023/08/09 05:30:25;;;;;;;6.78;5.75;;;14.50;99.90;;;;;;5114801;28;20618;-51
2023/08/09 05:32:51;;;;;;;5.75;5.03;;;14.60;99.90;;;;;;5114608;28;20165;-52
2023/08/09 05:35:17;;;;;;;6.25;5.65;;;14.50;99.90;;;;;;5114647;28;20177;-48
2023/08/09 05:37:42;;;;;;;6.72;6.03;;;14.60;99.90;;;;;;5114295;28;20180;-50
2023/08/09 05:40:09;;;;;;;7.68;6.97;;;14.70;99.90;;;;;;5114486;28;20300;-54
2023/08/09 05:42:36;;;;;;;7.65;6.95;;;14.80;99.90;;;;;;5114488;28;20192;-53
2023/08/09 05:45:01;;;;;;;8.73;7.13;;;14.90;99.90;;;;;;5114698;28;20173;-52
2023/08/09 05:47:27;;;;;;;7.20;6.57;;;15.00;99.90;;;;;;5114393;28;20178;-53
2023/08/09 05:49:53;;;;;;;6.45;5.95;;;15.20;99.90;;;;;;5114341;28;20188;-51
2023/08/09 05:52:18;;;;;;;7.47;6.82;;;15.30;99.90;;;;;;5114045;28;20209;-51
2023/08/09 05:54:44;;;;;;;7.95;7.35;;;15.40;99.90;;;;;;5114315;28;20264;-51
2023/08/09 05:57:10;;;;;;;8.57;7.78;;;15.60;99.90;;;;;;5114265;28;20183;-49
2023/08/09 05:59:36;;;;;;;8.50;7.68;;;15.60;99.90;;;;;;5113916;28;20201;-53
2023/08/09 06:02:03;;;;;;;13.18;8.98;;;15.80;99.90;;;;;;5114224;28;20180;-50
2023/08/09 06:04:29;;;;;;;10.18;8.50;;;15.80;99.90;;;;;;5114063;28;20186;-52
2023/08/09 06:06:54;;;;;;;8.85;7.95;;;15.90;99.90;;;;;;5114212;28;20169;-51
2023/08/09 06:09:20;;;;;;;10.30;9.20;;;16.00;99.90;;;;;;5114134;28;20238;-52
2023/08/09 06:11:45;;;;;;;9.05;8.25;;;16.10;99.90;;;;;;5114095;28;20572;-52
2023/08/09 06:14:11;;;;;;;10.32;8.82;;;16.10;99.90;;;;;;5114233;28;20625;-52
2023/08/09 06:16:37;;;;;;;9.82;8.43;;;16.10;99.90;;;;;;5113750;28;20173;-50
2023/08/09 06:19:02;;;;;;;9.85;8.85;;;16.40;99.90;;;;;;5113743;28;20221;-48
2023/08/09 06:21:29;;;;;;;9.68;8.75;;;16.40;99.90;;;;;;5114027;28;20194;-49
2023/08/09 06:23:55;;;;;;;8.68;7.88;;;16.50;99.90;;;;;;5113892;28;20211;-51
2023/08/09 06:26:20;;;;;;;9.55;8.05;;;16.60;99.90;;;;;;5114030;28;20592;-52
2023/08/09 06:28:48;;;;;;;9.18;7.22;;;16.60;99.90;;;;;;5113596;28;20170;-52
2023/08/09 06:31:16;;;;;;;7.57;6.85;;;16.70;99.90;;;;;;5113781;28;20177;-51
2023/08/09 06:33:42;;;;;;;6.90;6.30;;;16.80;99.90;;;;;;5113884;28;20191;-49
2023/08/09 06:36:09;;;;;;;7.30;6.55;;;16.80;99.90;;;;;;5113859;28;20265;-52
2023/08/09 06:38:35;;;;;;;7.13;6.20;;;16.80;99.90;;;;;;5113805;28;20177;-51
2023/08/09 06:41:01;;;;;;;6.80;6.20;;;16.80;99.90;;;;;;5113717;28;20666;-51
2023/08/09 06:43:28;;;;;;;9.57;6.45;;;16.90;99.90;;;;;;5113739;28;20193;-51
2023/08/09 06:45:53;;;;;;;10.48;6.05;;;17.00;99.90;;;;;;5113473;28;20262;-52
2023/08/09 06:48:19;;;;;;;9.20;6.05;;;17.00;99.90;;;;;;5113739;28;20627;-53
2023/08/09 06:50:44;;;;;;;7.30;5.45;;;17.00;99.90;;;;;;5113705;28;20258;-52
2023/08/09 06:53:11;;;;;;;9.50;5.10;;;17.00;99.90;;;;;;5113665;28;20214;-49
2023/08/09 06:55:37;;;;;;;7.47;4.85;;;17.00;99.90;;;;;;5113609;28;20180;-49
2023/08/09 06:58:03;;;;;;;5.30;4.38;;;17.10;99.90;;;;;;5113630;28;20178;-49
2023/08/09 07:00:28;;;;;;;5.55;4.30;;;17.10;99.90;;;;;;5113519;28;20208;-49
2023/08/09 07:02:54;;;;;;;5.70;5.10;;;17.20;99.90;;;;;;5113283;28;20169;-52
2023/08/09 07:05:21;;;;;;;5.57;4.05;;;17.30;99.90;;;;;;5113580;28;20165;-49
2023/08/09 07:07:48;;;;;;;4.90;4.50;;;17.20;99.90;;;;;;5114083;28;20177;-48
2023/08/09 07:10:15;;;;;;;5.32;4.70;;;17.40;99.90;;;;;;5113687;28;20177;-51
2023/08/09 07:12:41;;;;;;;5.85;5.25;;;17.50;99.90;;;;;;5116448;28;20166;-53
2023/08/09 07:15:08;;;;;;;7.43;6.35;;;17.60;99.90;;;;;;5117075;28;20650;-51
2023/08/09 07:17:37;;;;;;;8.20;6.75;;;17.70;99.90;;;;;;5117303;28;20211;-50
2023/08/09 07:20:07;;;;;;;7.70;6.85;;;17.80;99.90;;;;;;5117065;28;20315;-53
2023/08/09 07:22:34;;;;;;;8.15;7.10;;;17.80;99.90;;;;;;5117128;28;20177;-49
2023/08/09 07:25:00;;;;;;;8.30;7.50;;;18.00;99.90;;;;;;5117068;28;20264;-53
2023/08/09 07:27:26;;;;;;;8.05;7.18;;;18.10;99.90;;;;;;5116949;28;20223;-52
2023/08/09 07:29:52;;;;;;;12.68;7.85;;;18.20;99.90;;;;;;5116912;28;20173;-53
2023/08/09 07:32:18;;;;;;;8.30;7.50;;;18.20;99.90;;;;;;5115357;28;20173;-51
2023/08/09 07:34:43;;;;;;;9.48;8.38;;;18.20;99.90;;;;;;5116926;28;20249;-49
2023/08/09 07:37:09;;;;;;;10.20;9.35;;;18.30;99.90;;;;;;5116918;28;20269;-50
2023/08/09 07:39:35;;;;;;;12.05;10.95;;;18.30;99.90;;;;;;5116790;28;20220;-51
2023/08/09 07:42:01;;;;;;;13.05;11.82;;;18.40;99.90;;;;;;5116525;28;20294;-49
2023/08/09 07:44:26;;;;;;;12.38;11.30;;;18.70;99.90;;;;;;5116479;28;20177;-51
2023/08/09 07:46:52;;;;;;;12.77;11.65;;;18.90;99.90;;;;;;5115454;28;20326;-50
2023/08/09 07:49:18;;;;;;;13.02;11.82;;;18.70;99.90;;;;;;5116717;28;20188;-49
2023/08/09 07:51:43;;;;;;;13.82;12.63;;;18.60;99.90;;;;;;5116587;28;20170;-52
2023/08/09 07:54:09;;;;;;;15.35;13.90;;;18.40;99.90;;;;;;5116567;28;20177;-52
2023/08/09 07:56:35;;;;;;;20.17;18.25;;;18.60;99.90;;;;;;5116296;27;20173;-51
2023/08/09 07:59:00;;;;;;;21.95;19.88;;;18.70;99.90;;;;;;5116446;28;20239;-53
2023/08/09 08:01:26;;;;;;;23.90;21.60;;;18.70;99.90;;;;;;5116464;28;20177;-50
2023/08/09 08:03:51;;;;;;;22.40;20.20;;;18.50;99.90;;;;;;5116328;28;20176;-52
2023/08/09 08:06:21;;;;;;;23.13;20.83;;;18.50;99.90;;;;;;5116339;28;20618;-53
2023/08/09 08:08:46;;;;;;;25.08;22.48;;;18.40;99.90;;;;;;5116013;28;20226;-52
2023/08/09 08:11:12;;;;;;;22.73;20.42;;;18.50;99.90;;;;;;5116152;28;20185;-53
2023/08/09 08:13:38;;;;;;;24.25;21.73;;;18.60;99.90;;;;;;5116470;28;20184;-53
2023/08/09 08:16:04;;;;;;;22.95;20.50;;;18.90;99.90;;;;;;5116168;28;20169;-51
2023/08/09 08:18:30;;;;;;;20.40;18.23;;;19.00;99.90;;;;;;5116412;28;20215;-50
2023/08/09 08:20:57;;;;;;;18.98;17.17;;;19.20;99.90;;;;;;5114695;28;20228;-53
2023/08/09 08:23:23;;;;;;;18.98;17.13;;;19.00;99.90;;;;;;5115964;28;20181;-53
2023/08/09 08:25:49;;;;;;;17.25;15.65;;;19.00;99.90;;;;;;5115749;28;20173;-50
2023/08/09 08:28:15;;;;;;;16.08;14.38;;;19.20;99.90;;;;;;5115876;28;20181;-52
2023/08/09 08:30:40;;;;;;;10.23;9.23;;;19.40;99.90;;;;;;5115917;28;20173;-50
2023/08/09 08:33:08;;;;;;;9.07;8.25;;;19.50;99.90;;;;;;5115952;28;20177;-49
2023/08/09 08:35:36;;;;;;;9.45;8.50;;;19.50;99.90;;;;;;5115561;28;20523;-52
2023/08/09 08:38:02;;;;;;;9.40;8.60;;;19.40;99.90;;;;;;5115686;28;20202;-51
2023/08/09 08:40:31;;;;;;;8.27;7.68;;;19.30;99.90;;;;;;5115507;28;20201;-50
2023/08/09 08:42:59;;;;;;;9.90;8.95;;;19.00;99.90;;;;;;5115877;28;20189;-51
2023/08/09 08:45:24;;;;;;;9.45;8.50;;;19.00;99.90;;;;;;5115535;28;20196;-53
2023/08/09 08:47:50;;;;;;;8.75;8.00;;;19.10;99.90;;;;;;5115245;28;20170;-51
2023/08/09 08:50:17;;;;;;;9.55;8.80;;;19.50;99.90;;;;;;5115493;28;20169;-52
2023/08/09 08:52:45;;;;;;;9.77;8.85;;;19.50;99.90;;;;;;5115561;28;20268;-51
2023/08/09 08:55:12;;;;;;;8.50;7.70;;;19.60;99.90;;;;;;5115392;28;20157;-51
2023/08/09 08:57:39;;;;;;;7.65;6.93;;;19.90;99.90;;;;;;5115640;28;20294;-50
2023/08/09 09:00:16;;;;;;;7.50;6.80;;;20.30;99.90;;;;;;5115232;28;20280;-49
2023/08/09 09:02:46;;;;;;;6.75;6.15;;;20.40;99.90;;;;;;5115210;28;20169;-49
2023/08/09 09:05:16;;;;;;;7.60;5.80;;;20.00;99.90;;;;;;5115174;28;20231;-52
2023/08/09 09:07:45;;;;;;;6.07;5.60;;;19.70;99.90;;;;;;5115173;28;20193;-50
2023/08/09 09:10:12;;;;;;;6.65;6.00;;;19.40;99.90;;;;;;5114980;28;20184;-52
2023/08/09 09:12:38;;;;;;;7.25;6.55;;;19.30;99.90;;;;;;5114999;28;20201;-50
2023/08/09 09:15:06;;;;;;;6.40;5.88;;;19.50;99.90;;;;;;5114752;28;20682;-48
2023/08/09 09:17:42;;;;;;;6.30;5.68;;;19.60;99.90;;;;;;5114929;28;20177;-51
2023/08/09 09:20:23;;;;;;;6.00;5.47;;;19.70;99.90;;;;;;5114992;28;20297;-52
2023/08/09 09:22:50;;;;;;;5.70;4.90;;;20.00;99.90;;;;;;5115313;28;20212;-50
2023/08/09 09:25:17;;;;;;;5.53;5.00;;;20.00;99.90;;;;;;5114779;28;20184;-52
2023/08/09 09:27:49;;;;;;;6.50;5.78;;;20.30;99.90;;;;;;5114754;28;20167;-52
2023/08/09 09:30:15;;;;;;;8.85;6.10;;;20.30;99.90;;;;;;5114760;28;20165;-54
2023/08/09 09:32:53;;;;;;;5.97;5.47;;;20.40;99.90;;;;;;5113848;28;20657;-52
2023/08/09 09:35:19;;;;;;;5.10;4.70;;;20.40;99.90;;;;;;5113308;28;20173;-52
2023/08/09 09:37:52;;;;;;;4.38;4.05;;;20.40;99.90;;;;;;5113883;28;20260;-53
2023/08/09 09:40:36;;;;;;;5.47;4.10;;;20.70;99.90;;;;;;5113739;28;20197;-51
2023/08/09 09:43:06;;;;;;;6.88;4.18;;;20.60;99.90;;;;;;5113916;28;20165;-52
2023/08/09 09:45:32;;;;;;;5.93;3.58;;;20.40;99.90;;;;;;5113867;28;20204;-53
2023/08/09 09:48:00;;;;;;;3.85;3.50;;;20.60;99.90;;;;;;5113412;28;20599;-52
2023/08/09 09:50:28;;;;;;;5.57;3.60;;;20.60;99.90;;;;;;5113784;28;20202;-52
2023/08/09 09:52:54;;;;;;;5.63;3.03;;;20.50;99.90;;;;;;5113693;28;20165;-50
2023/08/09 09:55:26;;;;;;;3.42;2.42;;;20.50;99.90;;;;;;5113767;28;20178;-51
2023/08/09 09:57:56;;;;;;;2.78;1.80;;;20.40;99.90;;;;;;5113591;28;20583;-52
2023/08/09 10:00:22;;;;;;;5.32;2.05;;;20.10;99.90;;;;;;5113614;28;20320;-53
2023/08/09 10:02:50;;;;;;;5.97;1.90;;;20.20;99.90;;;;;;5113700;28;20199;-51
2023/08/09 10:05:23;;;;;;;3.90;1.90;;;20.40;99.90;;;;;;5113261;28;20177;-52
2023/08/09 10:07:50;;;;;;;4.13;1.70;;;20.50;99.90;;;;;;5113542;28;20173;-51
2023/08/09 10:10:17;;;;;;;3.03;1.83;;;20.60;99.90;;;;;;5113668;28;20260;-53
2023/08/09 10:12:47;;;;;;;2.20;2.00;;;20.80;99.90;;;;;;5113510;28;20252;-51
2023/08/09 10:15:16;;;;;;;3.15;1.83;;;20.80;99.90;;;;;;5113452;28;20169;-53
2023/08/09 10:17:46;;;;;;;3.67;1.60;;;21.00;99.90;;;;;;5113074;28;20304;-51
2023/08/09 10:20:13;;;;;;;1.77;1.27;;;21.20;99.90;;;;;;5113034;28;20256;-51
2023/08/09 10:22:39;;;;;;;2.78;1.17;;;21.30;99.90;;;;;;5113297;28;20263;-51
2023/08/09 10:25:06;;;;;;;3.33;1.10;;;21.20;99.90;;;;;;5113294;28;20314;-52
2023/08/09 10:27:59;;;;;;;3.60;1.42;;;21.00;99.90;;;;;;5113290;28;20172;-51
2023/08/09 10:30:28;;;;;;;2.13;1.00;;;21.10;99.90;;;;;;5113264;28;20184;-49
2023/08/09 10:32:58;;;;;;;1.77;1.38;;;21.10;99.90;;;;;;5113235;28;20236;-48
2023/08/09 10:35:54;;;;;;;2.28;1.30;;;21.10;99.90;;;;;;5113176;28;20264;-49
2023/08/09 10:38:31;;;;;;;3.33;1.55;;;21.10;99.90;;;;;;5099991;28;20279;-50
2023/08/09 10:40:58;;;;;;;3.72;1.38;;;21.10;99.90;;;;;;5113065;28;20234;-51
2023/08/09 10:43:26;;;;;;;1.77;1.38;;;21.10;99.90;;;;;;5113036;28;20173;-49
2023/08/09 10:45:56;;;;;;;3.63;1.30;;;20.90;99.90;;;;;;5113131;28;20166;-49
2023/08/09 10:48:23;;;;;;;3.50;1.30;;;20.90;99.90;;;;;;5117160;27;20181;-51
2023/08/09 10:51:07;;;;;;;3.78;1.50;;;20.80;99.90;;;;;;5117101;28;20177;-50
2023/08/09 10:53:57;;;;;;;3.47;1.60;;;20.70;99.90;;;;;;5117063;28;20244;-52
2023/08/09 10:56:41;;;;;;;2.72;1.33;;;20.70;99.90;;;;;;5117085;28;20161;-48
2023/08/09 10:59:14;;;;;;;2.45;1.52;;;20.80;99.90;;;;;;5116844;28;20176;-49
2023/08/09 11:01:41;;;;;;;3.08;1.55;;;20.80;99.90;;;;;;5116907;28;20214;-51
2023/08/09 11:04:17;;;;;;;3.03;1.52;;;20.80;99.90;;;;;;5116863;28;20261;-51
2023/08/09 11:06:48;;;;;;;4.90;1.75;;;21.00;99.90;;;;;;5116837;28;20162;-49
2023/08/09 11:09:16;;;;;;;1.83;1.50;;;21.00;99.90;;;;;;5116810;28;20158;-52
2023/08/09 11:11:43;;;;;;;2.15;1.25;;;20.80;99.90;;;;;;5116643;28;20173;-50
2023/08/09 11:14:11;;;;;;;5.07;1.40;;;20.90;99.90;;;;;;5116731;28;20180;-49
2023/08/09 11:16:37;;;;;;;4.40;1.75;;;20.90;99.90;;;;;;5116644;28;20618;-50
2023/08/09 11:19:19;;;;;;;2.60;1.70;;;21.00;99.90;;;;;;5116417;28;20303;-53
2023/08/09 11:21:53;;;;;;;4.13;1.65;;;21.30;99.90;;;;;;5116250;28;20194;-49
2023/08/09 11:24:21;;;;;;;2.08;1.20;;;21.10;99.90;;;;;;5116472;28;20239;-53
2023/08/09 11:26:49;;;;;;;3.28;1.30;;;20.50;99.90;;;;;;5116394;28;20179;-51
2023/08/09 11:29:17;;;;;;;3.08;1.60;;;20.10;99.90;;;;;;5116288;28;20230;-52
2023/08/09 11:31:54;;;;;;;2.72;1.50;;;20.10;99.90;;;;;;5116332;28;20169;-49
2023/08/09 11:34:21;;;;;;;1.50;1.30;;;20.30;99.90;;;;;;5116329;28;20229;-51
2023/08/09 11:36:49;;;;;;;2.53;1.13;;;20.50;99.90;;;;;;5115875;28;20662;-51
2023/08/09 11:39:15;;;;;;;2.47;1.33;;;20.90;99.90;;;;;;5116072;28;20173;-49
2023/08/09 11:41:53;;;;;;;2.53;1.30;;;21.10;99.90;;;;;;5116053;28;20260;-53
2023/08/09 11:44:27;;;;;;;5.22;1.33;;;21.10;99.90;;;;;;5116045;28;20176;-53
2023/08/09 11:46:54;;;;;;;1.63;1.25;;;21.20;99.90;;;;;;5116169;28;20164;-51
2023/08/09 11:49:25;;;;;;;2.15;1.20;;;21.20;99.90;;;;;;5115876;28;20173;-48
2023/08/09 11:51:51;;;;;;;2.53;1.30;;;21.30;99.90;;;;;;5115856;28;20153;-53
2023/08/09 11:54:17;;;;;;;3.63;1.55;;;21.30;99.90;;;;;;5115846;28;20280;-53
2023/08/09 11:56:43;;;;;;;2.78;1.45;;;21.50;99.90;;;;;;5115409;28;20534;-51
2023/08/09 11:59:11;;;;;;;3.78;1.40;;;21.60;99.90;;;;;;5115695;28;20177;-52
2023/08/09 12:01:39;;;;;;;1.40;1.20;;;21.80;99.90;;;;;;5115764;28;20173;-52
2023/08/09 12:04:11;;;;;;;2.97;1.42;;;21.90;99.90;;;;;;5115662;28;20526;-54
2023/08/09 12:06:44;;;;;;;1.58;1.13;;;22.00;99.90;;;;;;5115541;28;20230;-50
2023/08/09 12:09:34;;;;;;;4.32;1.60;;;22.00;99.90;;;;;;5115553;28;20252;-51
2023/08/09 12:12:06;;;;;;;1.63;1.00;;;21.80;99.90;;;;;;5115987;28;20206;-52
2023/08/09 12:14:33;;;;;;;3.00;1.30;;;21.90;99.90;;;;;;5115655;28;20192;-51
2023/08/09 12:16:59;;;;;;;4.95;1.35;;;22.10;99.90;;;;;;5115371;28;20204;-52
2023/08/09 12:19:25;;;;;;;2.95;1.10;;;22.10;99.90;;;;;;5115018;28;20260;-50
2023/08/09 12:21:51;;;;;;;2.83;1.10;;;22.20;99.90;;;;;;5115258;28;20174;-52
2023/08/09 12:24:17;;;;;;;2.25;1.33;;;22.20;99.90;;;;;;5115237;28;20169;-52
2023/08/09 12:26:42;;;;;;;1.45;1.00;;;22.10;99.90;;;;;;5115245;28;20534;-49
2023/08/09 12:29:11;;;;;;;1.92;1.08;;;22.10;99.90;;;;;;5115051;28;20176;-51
2023/08/09 12:31:37;;;;;;;2.33;1.20;;;21.90;99.90;;;;;;5115085;28;20166;-50
2023/08/09 12:34:03;;;;;;;2.97;1.20;;;22.00;99.90;;;;;;5114980;28;20174;-53
2023/08/09 12:36:30;;;;;;;3.08;1.20;;;22.30;99.90;;;;;;5115021;28;20180;-53
2023/08/09 12:38:56;;;;;;;2.40;1.08;;;22.40;99.90;;;;;;5114886;28;20177;-52
2023/08/09 12:41:23;;;;;;;4.32;1.20;;;22.40;99.90;;;;;;5114715;28;20269;-53
2023/08/09 12:43:48;;;;;;;3.65;1.23;;;22.10;99.90;;;;;;5115101;28;20195;-53